Herminie, Pennsylvania
Current Conditions -  °F | °C
As of 12:53 AM on Wednesday 26 Nov 2014 (Local Time) from KAGC Reporting Station
Clear Clear  
Wind Chill: 34°   Ceiling: Unl
Heat Index: 34°   Visibility: 10mi
Dew Point: 22°   Wind: 0mph
Humidity: 61%   Direction: NA
Pressure: 30.17"   Gusts: NA
Location:  40.26°N, 79.72°W
Report Text: KAGC 260553Z 00000KT 10SM CLR 01/M06 A3017 RMK AO2 SLP228 T00111056 10033 20000 53005
Loading
Personal Weather Stations






























Interactive Weather Map New forecast layout! Learn more

10-Day Weather Forecast

Advertisements
Track Severe Weather on mobile